Terminal Aerodrome Forecast
Issued by NWS

Home | Current Version | Previous Version | Text Only | Print | Product List | Glossary On
Versions: 1 2 3 4 5 6 7 8 9 10 11 12 13 14 15 16 17 18 19 20 21 22
000
FTUS44 KLZK 201400 AAA
TAFLLQ
TAF AMD
KLLQ 201447Z 2015/2112 05005KT P6SM BKN050
      TEMPO 2015/2017 5SM BR
     FM210100 07003KT P6SM SCT060 SCT250
      TEMPO 2108/2112 5SM BR=

USA.gov is the U.S. government's official web portal to all federal, state and local government web resources and services.